createdAt,value
2018-12-25T00:04:27.642Z,6.60
2018-12-25T00:07:17.729Z,6.57
2018-12-25T00:13:28.508Z,6.37
2018-12-25T00:16:18.089Z,6.87
2018-12-25T00:19:08.191Z,6.30
2018-12-25T00:21:57.780Z,6.73
2018-12-25T00:24:47.371Z,6.67
2018-12-25T00:27:36.969Z,5.97
2018-12-25T00:30:26.524Z,6.40
2018-12-25T00:33:16.111Z,5.67
2018-12-25T00:36:05.696Z,6.50
2018-12-25T00:38:55.326Z,6.70
2018-12-25T00:41:44.896Z,7.47
2018-12-25T00:44:34.503Z,7.37
2018-12-25T00:47:24.095Z,7.30
2018-12-25T00:50:13.734Z,7.27
2018-12-25T00:53:03.835Z,8.00
2018-12-25T00:55:53.410Z,7.20
2018-12-25T00:59:02.520Z,7.33
2018-12-25T01:01:52.087Z,7.23
2018-12-25T01:04:41.673Z,7.67
2018-12-25T01:07:31.245Z,6.90
2018-12-25T01:10:20.820Z,7.60
2018-12-25T01:13:10.465Z,7.30
2018-12-25T01:15:52.827Z,6.23
2018-12-25T01:18:42.917Z,5.17
2018-12-25T01:21:32.512Z,6.10
2018-12-25T01:24:22.267Z,6.10
2018-12-25T01:27:31.290Z,7.60
2018-12-25T01:33:15.904Z,8.70
2018-12-25T01:36:05.502Z,7.20
2018-12-25T01:38:55.550Z,8.77
2018-12-25T01:41:45.119Z,8.10
2018-12-25T01:44:35.018Z,8.47
2018-12-25T01:47:26.315Z,9.17
2018-12-25T01:50:15.911Z,8.10
2018-12-25T01:53:05.493Z,8.00
2018-12-25T01:55:55.081Z,9.07
2018-12-25T01:59:03.741Z,9.10
2018-12-25T02:01:53.332Z,7.90
2018-12-25T02:04:42.908Z,8.20
2018-12-25T02:07:32.479Z,8.43
2018-12-25T02:10:22.399Z,8.30
2018-12-25T02:13:11.971Z,7.73
2018-12-25T02:15:53.915Z,7.33
2018-12-25T02:18:43.555Z,7.30
2018-12-25T02:21:33.669Z,6.73
2018-12-25T02:24:42.186Z,7.83
2018-12-25T02:27:31.748Z,7.00
2018-12-25T02:30:21.319Z,7.50
2018-12-25T02:33:10.895Z,7.33
2018-12-25T02:36:00.466Z,7.87
2018-12-25T02:38:50.945Z,7.97
2018-12-25T02:41:40.524Z,7.80
2018-12-25T02:44:30.093Z,7.30
2018-12-25T02:47:19.663Z,8.13
2018-12-25T02:50:09.236Z,7.10
2018-12-25T02:52:59.267Z,7.20
2018-12-25T02:55:49.136Z,6.93
2018-12-25T02:58:38.690Z,6.73
2018-12-25T03:01:28.266Z,6.70
2018-12-25T03:04:17.844Z,6.60
2018-12-25T03:10:15.823Z,6.47
2018-12-25T03:13:05.411Z,5.77
2018-12-25T03:15:47.579Z,6.57
2018-12-25T03:18:37.223Z,6.40
2018-12-25T03:21:27.319Z,6.70
2018-12-25T03:24:16.873Z,5.87
2018-12-25T03:27:07.493Z,7.07
2018-12-25T03:29:57.584Z,5.77
2018-12-25T03:32:47.134Z,5.90
2018-12-25T03:35:36.710Z,6.07
2018-12-25T03:38:26.272Z,7.33
2018-12-25T03:41:15.859Z,6.93
2018-12-25T03:44:05.402Z,6.13
2018-12-25T03:46:54.976Z,5.17
2018-12-25T03:49:44.542Z,5.10
2018-12-25T03:52:34.114Z,5.47
2018-12-25T03:55:23.800Z,5.67
2018-12-25T03:58:13.398Z,5.03
2018-12-25T04:01:02.969Z,4.60
2018-12-25T04:03:52.605Z,5.33
2018-12-25T04:06:42.188Z,4.53
2018-12-25T04:09:31.769Z,4.87
2018-12-25T04:12:21.333Z,4.37
2018-12-25T04:15:03.949Z,4.07
2018-12-25T04:17:53.529Z,3.60
2018-12-25T04:20:43.545Z,3.07
2018-12-25T04:23:33.132Z,2.83
2018-12-25T04:26:22.726Z,3.20
2018-12-25T04:29:12.293Z,2.93
2018-12-25T04:32:01.879Z,3.40
2018-12-25T04:34:51.446Z,3.30
2018-12-25T04:37:41.280Z,3.10
2018-12-25T04:40:31.055Z,3.30
2018-12-25T04:43:20.647Z,4.73
2018-12-25T04:46:10.459Z,3.03
2018-12-25T04:49:00.039Z,2.43
2018-12-25T04:51:49.620Z,3.03
2018-12-25T04:54:39.174Z,2.60
2018-12-25T04:57:28.766Z,2.50
2018-12-25T05:03:26.757Z,2.20
2018-12-25T05:06:16.800Z,2.10
2018-12-25T05:09:08.052Z,2.07
2018-12-25T05:11:57.640Z,1.70
2018-12-25T05:14:39.745Z,1.90
2018-12-25T05:17:29.307Z,1.97
2018-12-25T05:20:18.893Z,1.90
2018-12-25T05:23:15.352Z,1.77
2018-12-25T05:26:04.930Z,1.90
2018-12-25T05:28:54.951Z,1.30
2018-12-25T05:31:44.528Z,1.87
2018-12-25T05:40:23.645Z,1.30
2018-12-25T05:43:13.238Z,1.60
2018-12-25T05:46:21.740Z,1.80
2018-12-25T05:49:11.305Z,1.70
2018-12-25T05:52:01.464Z,1.70
2018-12-25T05:54:51.579Z,1.87
2018-12-25T05:57:41.127Z,1.30
2018-12-25T06:00:30.798Z,2.00
2018-12-25T06:03:20.376Z,1.87
2018-12-25T06:06:10.377Z,1.73
2018-12-25T06:08:59.959Z,2.10
2018-12-25T06:11:49.559Z,2.47
2018-12-25T06:14:32.792Z,1.97
2018-12-25T06:17:22.327Z,2.10
2018-12-25T06:20:11.907Z,1.90
2018-12-25T06:23:01.897Z,1.57
2018-12-25T06:25:51.503Z,1.70
2018-12-25T06:28:41.559Z,2.00
2018-12-25T06:31:31.149Z,1.83
2018-12-25T06:37:23.312Z,2.23
2018-12-25T06:40:12.518Z,2.03
2018-12-25T06:43:01.909Z,1.63
2018-12-25T06:45:51.089Z,1.90
2018-12-25T06:48:40.211Z,1.80
2018-12-25T06:51:29.937Z,1.80
2018-12-25T06:54:19.080Z,1.90
2018-12-25T06:57:08.574Z,1.90
2018-12-25T06:59:57.944Z,2.03
2018-12-25T07:02:47.353Z,1.90
2018-12-25T07:05:36.813Z,2.00
2018-12-25T07:08:26.207Z,1.77
2018-12-25T07:11:15.376Z,2.10
2018-12-25T07:13:57.506Z,2.20
2018-12-25T07:16:46.680Z,2.27
2018-12-25T07:19:35.825Z,2.13
2018-12-25T07:22:24.986Z,1.90
2018-12-25T07:25:14.417Z,2.33
2018-12-25T07:28:03.620Z,2.17
2018-12-25T07:30:53.058Z,1.93
2018-12-25T07:33:42.198Z,2.30
2018-12-25T07:36:31.741Z,2.10
2018-12-25T07:39:20.882Z,2.80
2018-12-25T07:42:10.040Z,2.30
2018-12-25T07:44:59.194Z,2.77
2018-12-25T07:47:48.577Z,2.47
2018-12-25T07:50:37.788Z,2.50
2018-12-25T07:53:27.210Z,2.40
2018-12-25T07:56:16.686Z,2.00
2018-12-25T08:02:13.938Z,2.60
2018-12-25T08:05:03.323Z,2.23
2018-12-25T08:07:52.485Z,2.23
2018-12-25T08:10:41.856Z,2.80
2018-12-25T08:13:24.221Z,2.60
2018-12-25T08:16:13.960Z,2.77
2018-12-25T08:19:03.113Z,2.33
2018-12-25T08:21:52.353Z,2.40
2018-12-25T08:24:41.512Z,2.30
2018-12-25T08:27:30.660Z,2.37
2018-12-25T08:30:19.799Z,2.33
2018-12-25T08:33:09.268Z,2.60
2018-12-25T08:35:58.784Z,2.50
2018-12-25T08:38:47.970Z,2.60
2018-12-25T08:41:37.127Z,2.20
2018-12-25T08:44:26.274Z,2.53
2018-12-25T08:47:15.424Z,2.10
2018-12-25T08:50:06.341Z,2.17
2018-12-25T08:52:55.615Z,2.40
2018-12-25T08:55:44.886Z,2.30
2018-12-25T08:58:34.032Z,2.27
2018-12-25T09:01:23.208Z,2.40
2018-12-25T09:04:12.772Z,2.23
2018-12-25T09:07:02.249Z,2.67
2018-12-25T09:10:10.658Z,2.10
2018-12-25T09:15:46.997Z,2.40
2018-12-25T09:18:36.644Z,2.57
2018-12-25T09:21:25.840Z,2.47
2018-12-25T09:24:15.006Z,1.93
2018-12-25T09:27:04.372Z,2.50
2018-12-25T09:29:53.516Z,2.77
2018-12-25T09:32:42.647Z,2.47
2018-12-25T09:35:31.795Z,3.00
2018-12-25T09:38:20.928Z,2.67
2018-12-25T09:41:10.074Z,2.60
2018-12-25T09:43:59.262Z,3.00
2018-12-25T09:46:48.404Z,2.50
2018-12-25T09:49:37.877Z,3.10
2018-12-25T09:52:27.007Z,2.27
2018-12-25T09:55:16.453Z,2.47
2018-12-25T09:58:05.593Z,2.37
2018-12-25T10:00:54.954Z,2.87
2018-12-25T10:03:44.091Z,2.80
2018-12-25T10:06:33.333Z,2.27
2018-12-25T10:09:22.687Z,2.43
2018-12-25T10:12:12.116Z,2.40
2018-12-25T10:14:54.503Z,3.23
2018-12-25T10:17:43.644Z,3.13
2018-12-25T10:20:33.026Z,2.70
2018-12-25T10:23:41.561Z,2.10
2018-12-25T10:26:30.726Z,2.70
2018-12-25T10:29:19.879Z,2.70
2018-12-25T10:32:09.310Z,2.50
2018-12-25T10:34:58.684Z,2.20
2018-12-25T10:37:48.462Z,2.17
2018-12-25T10:40:37.631Z,2.60
2018-12-25T10:43:27.407Z,2.60
2018-12-25T10:46:16.783Z,2.20
2018-12-25T10:49:06.172Z,2.43
2018-12-25T10:51:55.347Z,2.60
2018-12-25T10:54:44.524Z,2.33
2018-12-25T10:57:33.667Z,2.60
2018-12-25T11:00:22.835Z,2.10
2018-12-25T11:03:13.141Z,2.00
2018-12-25T11:06:02.924Z,1.90
2018-12-25T11:08:52.374Z,2.33
2018-12-25T11:11:41.526Z,2.03
2018-12-25T11:14:24.267Z,1.93
2018-12-25T11:17:13.413Z,2.10
2018-12-25T11:20:02.552Z,1.90
2018-12-25T11:22:51.961Z,2.33
2018-12-25T11:28:49.233Z,2.20
2018-12-25T11:31:38.608Z,1.60
2018-12-25T11:34:27.891Z,1.60
2018-12-25T11:37:17.579Z,1.70
2018-12-25T11:40:25.800Z,2.07
2018-12-25T11:43:15.245Z,1.90
2018-12-25T11:46:04.366Z,2.33
2018-12-25T11:48:53.546Z,1.60
2018-12-25T11:51:42.702Z,1.90
2018-12-25T11:54:31.858Z,1.60
2018-12-25T11:57:20.997Z,1.73
2018-12-25T12:00:11.866Z,2.00
2018-12-25T12:03:01.342Z,1.97
2018-12-25T12:05:50.491Z,2.07
2018-12-25T12:08:39.645Z,2.03
2018-12-25T12:11:28.792Z,2.70
2018-12-25T12:14:11.200Z,1.80
2018-12-25T12:17:00.362Z,2.03
2018-12-25T12:19:49.972Z,2.30
2018-12-25T12:22:39.164Z,2.23
2018-12-25T12:25:28.531Z,2.40
2018-12-25T12:28:17.709Z,2.20
2018-12-25T12:31:06.913Z,2.57
2018-12-25T12:33:56.070Z,2.47
2018-12-25T12:36:45.208Z,2.00
2018-12-25T12:39:34.604Z,1.87
2018-12-25T12:42:23.968Z,2.40
2018-12-25T12:45:13.423Z,2.30
2018-12-25T12:48:02.603Z,2.30
2018-12-25T12:50:51.786Z,2.20
2018-12-25T12:53:40.938Z,1.83
2018-12-25T12:56:30.080Z,1.70
2018-12-25T12:59:19.256Z,2.00
2018-12-25T13:02:08.398Z,2.07
2018-12-25T13:04:57.552Z,2.20
2018-12-25T13:07:47.282Z,1.90
2018-12-25T13:10:36.430Z,1.87
2018-12-25T13:13:25.655Z,2.23
2018-12-25T13:16:15.078Z,2.20
2018-12-25T13:19:04.250Z,2.50
2018-12-25T13:21:53.723Z,2.10
2018-12-25T13:24:42.875Z,2.10
2018-12-25T13:27:32.001Z,1.87
2018-12-25T13:30:21.441Z,1.70
2018-12-25T13:33:10.577Z,2.07
2018-12-25T13:35:59.779Z,1.97
2018-12-25T13:38:48.942Z,2.10
2018-12-25T13:41:38.105Z,1.90
2018-12-25T13:44:27.305Z,1.97
2018-12-25T13:47:16.760Z,1.77
2018-12-25T13:50:07.892Z,1.83
2018-12-25T13:53:02.743Z,1.90
2018-12-25T13:55:48.211Z,2.10
2018-12-25T13:58:37.363Z,1.80
2018-12-25T14:01:26.515Z,1.80
2018-12-25T14:07:25.406Z,2.20
2018-12-25T14:10:14.999Z,1.90
2018-12-25T14:13:04.362Z,2.00
2018-12-25T14:15:46.546Z,2.33
2018-12-25T14:18:36.123Z,1.77
2018-12-25T14:21:25.309Z,1.77
2018-12-25T14:24:26.369Z,2.17
2018-12-25T14:27:05.351Z,2.30
2018-12-25T14:29:54.495Z,2.03
2018-12-25T14:33:03.068Z,2.07
2018-12-25T14:35:52.443Z,2.70
2018-12-25T14:38:41.802Z,1.90
2018-12-25T14:41:31.026Z,4.50
2018-12-25T14:44:20.522Z,2.20
2018-12-25T14:47:10.017Z,2.47
2018-12-25T14:49:59.180Z,2.43
2018-12-25T14:52:48.331Z,2.67
2018-12-25T14:55:37.466Z,2.53
2018-12-25T14:58:26.985Z,2.93
2018-12-25T15:01:16.365Z,2.63
2018-12-25T15:04:05.531Z,2.77
2018-12-25T15:06:54.712Z,3.13
2018-12-25T15:09:43.866Z,2.50
2018-12-25T15:12:33.026Z,2.90
2018-12-25T15:15:15.360Z,3.07
2018-12-25T15:18:23.925Z,3.03
2018-12-25T15:21:13.075Z,3.30
2018-12-25T15:24:02.233Z,2.80
2018-12-25T15:29:59.983Z,3.30
2018-12-25T15:32:49.169Z,2.83
2018-12-25T15:35:38.546Z,2.70
2018-12-25T15:38:27.713Z,2.93
2018-12-25T15:41:16.890Z,2.90
2018-12-25T15:44:06.308Z,1.90
2018-12-25T15:46:55.689Z,2.17
2018-12-25T15:49:45.474Z,2.00
2018-12-25T15:52:34.680Z,2.50
2018-12-25T15:55:23.884Z,2.73
2018-12-25T15:58:15.776Z,2.80
2018-12-25T16:01:05.221Z,2.33
2018-12-25T16:03:54.414Z,2.80
2018-12-25T16:06:43.570Z,2.60
2018-12-25T16:09:32.752Z,2.40
2018-12-25T16:12:22.121Z,2.77
2018-12-25T16:15:04.535Z,3.10
2018-12-25T16:17:53.698Z,2.80
2018-12-25T16:20:42.879Z,2.60
2018-12-25T16:23:32.026Z,2.93
2018-12-25T16:26:21.187Z,2.87
2018-12-25T16:29:10.322Z,2.90
2018-12-25T16:31:59.477Z,2.60
2018-12-25T16:34:48.974Z,2.20
2018-12-25T16:37:38.117Z,2.80
2018-12-25T16:40:27.245Z,2.53
2018-12-25T16:43:16.409Z,2.90
2018-12-25T16:46:05.548Z,2.90
2018-12-25T16:48:54.698Z,2.63
2018-12-25T16:51:43.848Z,2.70
2018-12-25T16:54:33.644Z,2.87
2018-12-25T16:57:22.794Z,2.67
2018-12-25T17:00:12.616Z,3.03
2018-12-25T17:03:01.776Z,2.53
2018-12-25T17:05:50.937Z,3.07
2018-12-25T17:08:40.409Z,2.93
2018-12-25T17:11:29.567Z,3.20
2018-12-25T17:14:12.074Z,3.90
2018-12-25T17:17:01.562Z,2.80
2018-12-25T17:19:50.742Z,4.83
2018-12-25T17:22:39.926Z,2.80
2018-12-25T17:25:29.088Z,2.90
2018-12-25T17:28:18.541Z,3.10
2018-12-25T17:31:07.954Z,2.93
2018-12-25T17:33:57.364Z,3.13
2018-12-25T17:36:46.524Z,3.47
2018-12-25T17:39:35.676Z,2.57
2018-12-25T17:42:24.887Z,3.20
2018-12-25T17:45:14.032Z,2.77
2018-12-25T17:48:03.174Z,2.97
2018-12-25T17:50:52.619Z,3.07
2018-12-25T17:53:41.789Z,2.73
2018-12-25T17:56:37.769Z,3.23
2018-12-25T17:59:41.123Z,2.50
2018-12-25T18:02:30.299Z,3.17
2018-12-25T18:05:19.444Z,2.70
2018-12-25T18:08:08.696Z,3.33
2018-12-25T18:10:57.842Z,2.60
2018-12-25T18:13:40.131Z,2.97
2018-12-25T18:16:30.169Z,2.63
2018-12-25T18:19:20.188Z,2.40
2018-12-25T18:22:10.021Z,2.57
2018-12-25T18:24:59.491Z,2.73
2018-12-25T18:27:48.685Z,2.47
2018-12-25T18:30:38.074Z,2.17
2018-12-25T18:33:27.543Z,2.00
2018-12-25T18:36:16.702Z,2.73
2018-12-25T18:39:26.469Z,2.40
2018-12-25T18:42:23.068Z,2.40
2018-12-25T18:45:07.605Z,2.07
2018-12-25T18:47:57.403Z,2.23
2018-12-25T18:50:46.879Z,2.10
2018-12-25T18:53:36.036Z,2.17
2018-12-25T18:56:25.193Z,2.10
2018-12-25T18:59:14.716Z,2.37
2018-12-25T19:02:04.162Z,2.10
2018-12-25T19:04:53.306Z,1.90
2018-12-25T19:07:42.467Z,2.23
2018-12-25T19:10:31.972Z,2.10
2018-12-25T19:13:21.178Z,2.37
2018-12-25T19:16:10.346Z,2.07
2018-12-25T19:18:59.774Z,2.30
2018-12-25T19:21:49.251Z,1.90
2018-12-25T19:24:38.714Z,1.87
2018-12-25T19:27:27.885Z,2.00
2018-12-25T19:30:18.287Z,2.00
2018-12-25T19:33:07.696Z,2.07
2018-12-25T19:35:56.864Z,2.20
2018-12-25T19:38:46.039Z,2.53
2018-12-25T19:41:35.206Z,2.50
2018-12-25T19:44:43.401Z,2.00
2018-12-25T19:47:32.861Z,2.30
2018-12-25T19:50:24.340Z,2.17
2018-12-25T19:53:32.173Z,2.80
2018-12-25T19:56:21.326Z,2.27
2018-12-25T19:59:10.485Z,2.00
2018-12-25T20:01:59.646Z,2.73
2018-12-25T20:12:41.087Z,3.60
2018-12-25T20:15:32.894Z,11.93
2018-12-25T20:19:00.493Z,11.70
2018-12-25T20:22:28.083Z,3.93
2018-12-25T20:25:55.668Z,2.60
2018-12-25T20:29:23.284Z,2.37
2018-12-25T20:32:36.769Z,2.03
2018-12-25T20:36:04.355Z,1.90
2018-12-25T20:39:31.950Z,1.83
2018-12-25T20:42:59.546Z,2.60
2018-12-25T20:46:33.590Z,1.80
2018-12-25T20:50:11.416Z,2.13
2018-12-25T20:53:39.000Z,2.70
2018-12-25T20:57:06.610Z,2.47
2018-12-25T21:00:34.498Z,1.90
2018-12-25T21:04:02.316Z,1.97
2018-12-25T21:07:39.987Z,1.93
2018-12-25T21:11:07.561Z,1.93
2018-12-25T21:18:04.247Z,2.13
2018-12-25T21:21:31.831Z,1.90
2018-12-25T21:24:59.421Z,1.60
2018-12-25T21:27:47.456Z,2.00
2018-12-25T21:33:53.068Z,2.47
2018-12-25T21:37:03.029Z,2.27
2018-12-25T21:46:42.128Z,1.73
2018-12-25T21:52:46.506Z,1.97
2018-12-25T21:55:35.780Z,2.70
2018-12-25T21:58:25.246Z,2.40
2018-12-25T22:07:45.871Z,2.23
2018-12-25T22:10:35.026Z,2.47
2018-12-25T22:13:24.184Z,2.53
2018-12-25T22:16:13.356Z,3.37
2018-12-25T22:22:10.913Z,2.30
2018-12-25T22:25:00.036Z,1.93
2018-12-25T22:27:49.189Z,1.70
2018-12-25T22:30:38.364Z,2.27
2018-12-25T22:33:27.611Z,2.17
2018-12-25T22:36:16.761Z,2.23
2018-12-25T22:39:46.701Z,1.93
2018-12-25T22:42:36.568Z,2.30
2018-12-25T22:45:25.928Z,2.90
2018-12-25T22:48:34.129Z,2.60
2018-12-25T22:51:23.289Z,2.30
2018-12-25T22:54:12.481Z,2.83
2018-12-25T22:57:01.659Z,2.60
2018-12-25T22:59:51.042Z,2.40
2018-12-25T23:02:40.474Z,2.40
2018-12-25T23:05:29.614Z,2.70
2018-12-25T23:08:18.745Z,2.43
2018-12-25T23:11:07.900Z,2.63
2018-12-25T23:13:49.531Z,2.57
2018-12-25T23:16:38.952Z,2.73
2018-12-25T23:19:28.095Z,2.60
2018-12-25T23:25:12.302Z,2.93
2018-12-25T23:28:01.453Z,2.80
2018-12-25T23:30:50.600Z,2.93
2018-12-25T23:33:59.495Z,3.10
2018-12-25T23:36:50.057Z,2.77
2018-12-25T23:39:39.825Z,2.27
2018-12-25T23:42:29.723Z,2.53
2018-12-25T23:45:18.885Z,2.90
2018-12-25T23:48:08.266Z,2.50
2018-12-25T23:50:57.735Z,3.27
2018-12-25T23:53:46.904Z,3.10
2018-12-25T23:56:36.575Z,3.00
2018-12-25T23:59:26.056Z,2.93
